sensor_id;sensor_type;location;lat;lon;timestamp;pressure;altitude;pressure_sealevel;temperature;humidity
36192;BME280;22233;42.708;23.360;2023-04-08T00:00:44;95501.78;;;7.99;55.99
36192;BME280;22233;42.708;23.360;2023-04-08T00:03:10;95500.88;;;8.04;55.92
36192;BME280;22233;42.708;23.360;2023-04-08T00:05:35;95507.47;;;7.97;56.27
36192;BME280;22233;42.708;23.360;2023-04-08T00:08:01;95490.75;;;7.95;56.20
36192;BME280;22233;42.708;23.360;2023-04-08T00:10:26;95504.69;;;8.03;56.51
36192;BME280;22233;42.708;23.360;2023-04-08T00:12:52;95496.06;;;8.00;57.03
36192;BME280;22233;42.708;23.360;2023-04-08T00:15:17;95506.06;;;8.19;56.92
36192;BME280;22233;42.708;23.360;2023-04-08T00:17:43;95501.41;;;8.06;57.53
36192;BME280;22233;42.708;23.360;2023-04-08T00:20:09;95500.38;;;8.02;57.46
36192;BME280;22233;42.708;23.360;2023-04-08T00:22:35;95494.53;;;7.94;58.38
36192;BME280;22233;42.708;23.360;2023-04-08T00:25:01;95487.44;;;7.98;57.58
36192;BME280;22233;42.708;23.360;2023-04-08T00:27:27;95499.94;;;7.94;58.14
36192;BME280;22233;42.708;23.360;2023-04-08T00:29:52;95499.38;;;7.97;57.54
36192;BME280;22233;42.708;23.360;2023-04-08T00:32:18;95491.69;;;7.86;57.49
36192;BME280;22233;42.708;23.360;2023-04-08T00:34:43;95499.53;;;7.87;57.62
36192;BME280;22233;42.708;23.360;2023-04-08T00:37:09;95499.06;;;7.80;57.90
36192;BME280;22233;42.708;23.360;2023-04-08T00:39:36;95504.75;;;7.78;58.20
36192;BME280;22233;42.708;23.360;2023-04-08T00:42:01;95504.06;;;7.73;58.19
36192;BME280;22233;42.708;23.360;2023-04-08T00:44:27;95516.25;;;7.70;58.37
36192;BME280;22233;42.708;23.360;2023-04-08T00:46:53;95501.41;;;7.68;58.51
36192;BME280;22233;42.708;23.360;2023-04-08T00:49:18;95499.50;;;7.49;59.51
36192;BME280;22233;42.708;23.360;2023-04-08T00:51:44;95511.50;;;7.62;59.24
36192;BME280;22233;42.708;23.360;2023-04-08T00:54:09;95507.34;;;7.70;59.05
36192;BME280;22233;42.708;23.360;2023-04-08T00:56:35;95505.44;;;7.51;59.31
36192;BME280;22233;42.708;23.360;2023-04-08T00:59:02;95502.81;;;7.65;59.02
36192;BME280;22233;42.708;23.360;2023-04-08T01:04:59;95518.09;;;7.75;59.00
36192;BME280;22233;42.708;23.360;2023-04-08T01:07:37;95520.47;;;7.57;59.54
36192;BME280;22233;42.708;23.360;2023-04-08T01:12:49;95512.78;;;7.46;59.50
36192;BME280;22233;42.708;23.360;2023-04-08T01:15:16;95504.16;;;7.44;58.40
36192;BME280;22233;42.708;23.360;2023-04-08T01:17:42;95515.03;;;7.63;58.78
36192;BME280;22233;42.708;23.360;2023-04-08T01:20:09;95509.94;;;7.37;59.68
36192;BME280;22233;42.708;23.360;2023-04-08T01:22:57;95508.66;;;7.53;58.66
36192;BME280;22233;42.708;23.360;2023-04-08T01:25:34;95511.63;;;7.52;58.84
36192;BME280;22233;42.708;23.360;2023-04-08T01:28:04;95515.22;;;7.47;59.05
36192;BME280;22233;42.708;23.360;2023-04-08T01:30:31;95499.88;;;7.43;59.11
36192;BME280;22233;42.708;23.360;2023-04-08T01:32:59;95513.06;;;7.44;59.12
36192;BME280;22233;42.708;23.360;2023-04-08T01:35:26;95505.56;;;7.41;58.74
36192;BME280;22233;42.708;23.360;2023-04-08T01:37:52;95506.31;;;7.47;58.92
36192;BME280;22233;42.708;23.360;2023-04-08T01:40:18;95506.38;;;7.60;58.27
36192;BME280;22233;42.708;23.360;2023-04-08T01:42:49;95504.41;;;7.47;58.41
36192;BME280;22233;42.708;23.360;2023-04-08T01:45:16;95508.69;;;7.48;58.39
36192;BME280;22233;42.708;23.360;2023-04-08T01:47:45;95510.63;;;7.67;57.68
36192;BME280;22233;42.708;23.360;2023-04-08T01:50:13;95502.53;;;7.67;57.73
36192;BME280;22233;42.708;23.360;2023-04-08T01:52:40;95511.72;;;7.66;57.89
36192;BME280;22233;42.708;23.360;2023-04-08T01:55:07;95510.84;;;7.51;58.07
36192;BME280;22233;42.708;23.360;2023-04-08T01:57:36;95516.53;;;7.50;58.30
36192;BME280;22233;42.708;23.360;2023-04-08T02:00:06;95510.44;;;7.39;58.44
36192;BME280;22233;42.708;23.360;2023-04-08T02:02:35;95526.81;;;7.48;58.08
36192;BME280;22233;42.708;23.360;2023-04-08T02:05:01;95533.25;;;7.52;58.03
36192;BME280;22233;42.708;23.360;2023-04-08T02:07:26;95539.19;;;7.54;58.28
36192;BME280;22233;42.708;23.360;2023-04-08T02:09:52;95526.16;;;7.37;59.06
36192;BME280;22233;42.708;23.360;2023-04-08T02:12:17;95547.25;;;7.35;59.53
36192;BME280;22233;42.708;23.360;2023-04-08T02:14:43;95545.47;;;7.49;59.41
36192;BME280;22233;42.708;23.360;2023-04-08T02:19:53;95545.38;;;7.54;59.64
36192;BME280;22233;42.708;23.360;2023-04-08T02:22:35;95533.03;;;7.48;59.78
36192;BME280;22233;42.708;23.360;2023-04-08T02:25:03;95536.59;;;7.44;60.25
36192;BME280;22233;42.708;23.360;2023-04-08T02:27:33;95529.53;;;7.48;60.14
36192;BME280;22233;42.708;23.360;2023-04-08T02:29:59;95540.69;;;7.41;60.28
36192;BME280;22233;42.708;23.360;2023-04-08T02:32:29;95537.72;;;7.43;59.92
36192;BME280;22233;42.708;23.360;2023-04-08T02:34:58;95542.53;;;7.46;60.44
36192;BME280;22233;42.708;23.360;2023-04-08T02:37:25;95542.53;;;7.46;60.26
36192;BME280;22233;42.708;23.360;2023-04-08T02:39:52;95541.56;;;7.36;60.27
36192;BME280;22233;42.708;23.360;2023-04-08T02:42:17;95535.03;;;7.18;60.76
36192;BME280;22233;42.708;23.360;2023-04-08T02:44:43;95537.00;;;7.32;60.48
36192;BME280;22233;42.708;23.360;2023-04-08T02:47:08;95523.78;;;7.30;60.29
36192;BME280;22233;42.708;23.360;2023-04-08T02:49:33;95526.84;;;7.24;60.60
36192;BME280;22233;42.708;23.360;2023-04-08T02:51:59;95533.75;;;7.35;60.40
36192;BME280;22233;42.708;23.360;2023-04-08T02:54:25;95538.88;;;7.36;60.54
36192;BME280;22233;42.708;23.360;2023-04-08T02:56:50;95526.56;;;7.25;60.61
36192;BME280;22233;42.708;23.360;2023-04-08T02:59:16;95545.88;;;7.37;60.59
36192;BME280;22233;42.708;23.360;2023-04-08T03:01:41;95532.09;;;7.15;61.47
36192;BME280;22233;42.708;23.360;2023-04-08T03:04:07;95532.13;;;7.10;61.69
36192;BME280;22233;42.708;23.360;2023-04-08T03:06:32;95540.94;;;7.20;60.97
36192;BME280;22233;42.708;23.360;2023-04-08T03:08:58;95551.91;;;7.29;61.33
36192;BME280;22233;42.708;23.360;2023-04-08T03:11:23;95553.56;;;7.49;61.29
36192;BME280;22233;42.708;23.360;2023-04-08T03:13:49;95547.06;;;7.50;60.62
36192;BME280;22233;42.708;23.360;2023-04-08T03:16:15;95537.41;;;7.44;61.02
36192;BME280;22233;42.708;23.360;2023-04-08T03:18:41;95530.59;;;7.28;61.20
36192;BME280;22233;42.708;23.360;2023-04-08T03:21:06;95534.19;;;6.94;62.57
36192;BME280;22233;42.708;23.360;2023-04-08T03:23:31;95544.84;;;6.85;63.09
36192;BME280;22233;42.708;23.360;2023-04-08T03:25:57;95536.19;;;7.12;61.81
36192;BME280;22233;42.708;23.360;2023-04-08T03:28:23;95546.34;;;6.96;62.45
36192;BME280;22233;42.708;23.360;2023-04-08T03:30:48;95538.13;;;6.83;62.74
36192;BME280;22233;42.708;23.360;2023-04-08T03:33:13;95537.31;;;7.06;61.80
36192;BME280;22233;42.708;23.360;2023-04-08T03:35:39;95542.94;;;7.10;61.71
36192;BME280;22233;42.708;23.360;2023-04-08T03:38:05;95543.56;;;7.02;61.72
36192;BME280;22233;42.708;23.360;2023-04-08T03:40:34;95555.25;;;6.97;61.97
36192;BME280;22233;42.708;23.360;2023-04-08T03:42:59;95543.81;;;7.05;61.51
36192;BME280;22233;42.708;23.360;2023-04-08T03:45:25;95554.72;;;6.95;61.68
36192;BME280;22233;42.708;23.360;2023-04-08T03:47:51;95554.56;;;6.86;60.78
36192;BME280;22233;42.708;23.360;2023-04-08T03:50:16;95552.44;;;6.78;60.70
36192;BME280;22233;42.708;23.360;2023-04-08T03:52:41;95540.56;;;6.79;60.75
36192;BME280;22233;42.708;23.360;2023-04-08T03:55:07;95551.28;;;6.89;61.09
36192;BME280;22233;42.708;23.360;2023-04-08T03:57:33;95537.22;;;6.63;60.69
36192;BME280;22233;42.708;23.360;2023-04-08T03:59:58;95547.50;;;6.90;60.26
36192;BME280;22233;42.708;23.360;2023-04-08T04:02:24;95539.44;;;6.85;60.10
36192;BME280;22233;42.708;23.360;2023-04-08T04:04:49;95541.78;;;6.92;60.22
36192;BME280;22233;42.708;23.360;2023-04-08T04:07:14;95539.03;;;6.97;59.86
36192;BME280;22233;42.708;23.360;2023-04-08T04:09:40;95534.47;;;6.68;60.37
36192;BME280;22233;42.708;23.360;2023-04-08T04:12:06;95538.88;;;6.88;59.77
36192;BME280;22233;42.708;23.360;2023-04-08T04:14:31;95538.78;;;6.69;60.24
36192;BME280;22233;42.708;23.360;2023-04-08T04:16:56;95545.31;;;6.63;59.80
36192;BME280;22233;42.708;23.360;2023-04-08T04:19:22;95543.72;;;6.62;60.18
36192;BME280;22233;42.708;23.360;2023-04-08T04:21:47;95552.78;;;6.71;59.75
36192;BME280;22233;42.708;23.360;2023-04-08T04:24:13;95549.53;;;6.74;59.89
36192;BME280;22233;42.708;23.360;2023-04-08T04:26:41;95551.47;;;6.69;59.88
36192;BME280;22233;42.708;23.360;2023-04-08T04:29:07;95555.38;;;6.82;59.30
36192;BME280;22233;42.708;23.360;2023-04-08T04:31:32;95551.84;;;6.57;59.88
36192;BME280;22233;42.708;23.360;2023-04-08T04:33:58;95562.59;;;6.28;60.80
36192;BME280;22233;42.708;23.360;2023-04-08T04:36:23;95559.78;;;6.43;60.89
36192;BME280;22233;42.708;23.360;2023-04-08T04:38:49;95560.56;;;6.49;60.58
36192;BME280;22233;42.708;23.360;2023-04-08T04:41:15;95552.28;;;6.69;59.91
36192;BME280;22233;42.708;23.360;2023-04-08T04:43:41;95562.75;;;7.00;58.93
36192;BME280;22233;42.708;23.360;2023-04-08T04:46:06;95564.38;;;7.01;59.23
36192;BME280;22233;42.708;23.360;2023-04-08T04:48:33;95559.66;;;7.12;59.05
36192;BME280;22233;42.708;23.360;2023-04-08T04:51:00;95552.59;;;6.92;59.20
36192;BME280;22233;42.708;23.360;2023-04-08T04:53:27;95556.03;;;6.97;59.40
36192;BME280;22233;42.708;23.360;2023-04-08T04:55:52;95545.59;;;6.91;59.13
36192;BME280;22233;42.708;23.360;2023-04-08T04:58:18;95565.31;;;7.15;59.35
36192;BME280;22233;42.708;23.360;2023-04-08T05:00:43;95555.75;;;6.99;59.15
36192;BME280;22233;42.708;23.360;2023-04-08T05:03:10;95568.00;;;6.91;59.85
36192;BME280;22233;42.708;23.360;2023-04-08T05:05:35;95569.50;;;7.03;59.29
36192;BME280;22233;42.708;23.360;2023-04-08T05:08:01;95562.72;;;7.05;59.36
36192;BME280;22233;42.708;23.360;2023-04-08T05:10:26;95561.84;;;7.10;59.95
36192;BME280;22233;42.708;23.360;2023-04-08T05:12:52;95564.13;;;7.27;58.90
36192;BME280;22233;42.708;23.360;2023-04-08T05:15:17;95568.91;;;7.06;60.23
36192;BME280;22233;42.708;23.360;2023-04-08T05:17:42;95571.31;;;7.12;59.63
36192;BME280;22233;42.708;23.360;2023-04-08T05:20:08;95558.63;;;7.08;59.76
36192;BME280;22233;42.708;23.360;2023-04-08T05:22:34;95564.84;;;7.08;60.25
36192;BME280;22233;42.708;23.360;2023-04-08T05:24:59;95576.22;;;7.05;60.36
36192;BME280;22233;42.708;23.360;2023-04-08T05:27:25;95555.13;;;7.07;60.22
36192;BME280;22233;42.708;23.360;2023-04-08T05:29:51;95557.03;;;7.07;59.58
36192;BME280;22233;42.708;23.360;2023-04-08T05:32:16;95558.25;;;7.19;59.64
36192;BME280;22233;42.708;23.360;2023-04-08T05:34:42;95557.59;;;7.28;59.85
36192;BME280;22233;42.708;23.360;2023-04-08T05:37:08;95558.13;;;7.06;59.71
36192;BME280;22233;42.708;23.360;2023-04-08T05:39:33;95562.09;;;7.13;60.14
36192;BME280;22233;42.708;23.360;2023-04-08T05:41:59;95571.59;;;7.11;60.57
36192;BME280;22233;42.708;23.360;2023-04-08T05:44:24;95571.00;;;7.38;59.92
36192;BME280;22233;42.708;23.360;2023-04-08T05:46:50;95561.81;;;7.39;59.47
36192;BME280;22233;42.708;23.360;2023-04-08T05:49:15;95561.72;;;7.44;59.67
36192;BME280;22233;42.708;23.360;2023-04-08T05:51:44;95568.06;;;7.34;59.43
36192;BME280;22233;42.708;23.360;2023-04-08T05:54:09;95561.16;;;7.47;58.55
36192;BME280;22233;42.708;23.360;2023-04-08T05:56:35;95554.47;;;7.64;58.63
36192;BME280;22233;42.708;23.360;2023-04-08T05:59:00;95552.31;;;7.60;59.09
36192;BME280;22233;42.708;23.360;2023-04-08T06:01:26;95557.53;;;7.76;58.16
36192;BME280;22233;42.708;23.360;2023-04-08T06:03:51;95554.84;;;7.76;58.11
36192;BME280;22233;42.708;23.360;2023-04-08T06:06:17;95556.19;;;7.97;56.63
36192;BME280;22233;42.708;23.360;2023-04-08T06:08:42;95557.47;;;8.00;57.92
36192;BME280;22233;42.708;23.360;2023-04-08T06:11:08;95552.50;;;7.69;58.84
36192;BME280;22233;42.708;23.360;2023-04-08T06:13:33;95553.53;;;7.73;59.03
36192;BME280;22233;42.708;23.360;2023-04-08T06:16:09;95556.50;;;7.72;59.65
36192;BME280;22233;42.708;23.360;2023-04-08T06:18:34;95541.59;;;7.55;60.13
36192;BME280;22233;42.708;23.360;2023-04-08T06:20:59;95553.75;;;7.96;59.46
36192;BME280;22233;42.708;23.360;2023-04-08T06:23:25;95558.59;;;7.99;59.63
36192;BME280;22233;42.708;23.360;2023-04-08T06:25:52;95550.31;;;8.09;58.58
36192;BME280;22233;42.708;23.360;2023-04-08T06:28:18;95556.59;;;8.24;58.83
36192;BME280;22233;42.708;23.360;2023-04-08T06:30:43;95549.84;;;7.64;59.62
36192;BME280;22233;42.708;23.360;2023-04-08T06:33:09;95561.22;;;8.04;59.46
36192;BME280;22233;42.708;23.360;2023-04-08T06:35:34;95559.53;;;8.27;59.64
36192;BME280;22233;42.708;23.360;2023-04-08T06:38:01;95558.03;;;8.35;59.27
36192;BME280;22233;42.708;23.360;2023-04-08T06:40:26;95571.19;;;8.60;59.08
36192;BME280;22233;42.708;23.360;2023-04-08T06:42:52;95563.97;;;8.56;59.19
36192;BME280;22233;42.708;23.360;2023-04-08T06:45:18;95553.41;;;8.73;58.96
36192;BME280;22233;42.708;23.360;2023-04-08T06:47:44;95551.72;;;8.58;59.42
36192;BME280;22233;42.708;23.360;2023-04-08T06:50:09;95551.44;;;8.60;58.78
36192;BME280;22233;42.708;23.360;2023-04-08T06:52:35;95568.03;;;8.72;59.09
36192;BME280;22233;42.708;23.360;2023-04-08T06:55:00;95570.28;;;8.65;59.57
36192;BME280;22233;42.708;23.360;2023-04-08T06:57:26;95552.06;;;8.71;59.06
36192;BME280;22233;42.708;23.360;2023-04-08T06:59:51;95562.03;;;8.89;59.15
36192;BME280;22233;42.708;23.360;2023-04-08T07:02:17;95557.13;;;8.77;59.43
36192;BME280;22233;42.708;23.360;2023-04-08T07:04:43;95545.97;;;8.93;59.24
36192;BME280;22233;42.708;23.360;2023-04-08T07:07:08;95564.22;;;8.73;59.90
36192;BME280;22233;42.708;23.360;2023-04-08T07:09:34;95562.38;;;9.15;59.62
36192;BME280;22233;42.708;23.360;2023-04-08T07:12:01;95560.88;;;9.23;58.58
36192;BME280;22233;42.708;23.360;2023-04-08T07:14:28;95560.84;;;9.09;59.48
36192;BME280;22233;42.708;23.360;2023-04-08T07:16:54;95544.03;;;9.40;58.22
36192;BME280;22233;42.708;23.360;2023-04-08T07:19:20;95550.72;;;9.56;57.55
36192;BME280;22233;42.708;23.360;2023-04-08T07:21:47;95580.16;;;9.77;56.16
36192;BME280;22233;42.708;23.360;2023-04-08T07:24:12;95562.88;;;9.73;56.12
36192;BME280;22233;42.708;23.360;2023-04-08T07:26:38;95572.00;;;9.91;56.35
36192;BME280;22233;42.708;23.360;2023-04-08T07:29:04;95561.34;;;9.80;56.38
36192;BME280;22233;42.708;23.360;2023-04-08T07:31:30;95575.78;;;10.04;56.71
36192;BME280;22233;42.708;23.360;2023-04-08T07:33:55;95573.41;;;10.25;56.77
36192;BME280;22233;42.708;23.360;2023-04-08T07:36:21;95579.25;;;10.18;57.05
36192;BME280;22233;42.708;23.360;2023-04-08T07:38:46;95570.75;;;9.97;57.58
36192;BME280;22233;42.708;23.360;2023-04-08T07:41:14;95582.75;;;9.82;57.16
36192;BME280;22233;42.708;23.360;2023-04-08T07:43:40;95573.44;;;10.11;57.04
36192;BME280;22233;42.708;23.360;2023-04-08T07:46:06;95585.91;;;10.12;56.71
36192;BME280;22233;42.708;23.360;2023-04-08T07:48:32;95583.91;;;10.04;56.42
36192;BME280;22233;42.708;23.360;2023-04-08T07:51:10;95581.16;;;10.17;56.84
36192;BME280;22233;42.708;23.360;2023-04-08T07:53:36;95577.66;;;10.17;56.38
36192;BME280;22233;42.708;23.360;2023-04-08T07:56:02;95592.09;;;10.40;55.46
36192;BME280;22233;42.708;23.360;2023-04-08T07:58:34;95599.50;;;10.48;55.35
36192;BME280;22233;42.708;23.360;2023-04-08T08:00:59;95594.25;;;10.52;55.06
36192;BME280;22233;42.708;23.360;2023-04-08T08:03:25;95603.63;;;10.68;54.88
36192;BME280;22233;42.708;23.360;2023-04-08T08:05:51;95596.91;;;10.88;54.72
36192;BME280;22233;42.708;23.360;2023-04-08T08:08:16;95584.50;;;10.73;54.84
36192;BME280;22233;42.708;23.360;2023-04-08T08:10:42;95600.19;;;10.54;53.94
36192;BME280;22233;42.708;23.360;2023-04-08T08:13:07;95598.47;;;10.81;54.13
36192;BME280;22233;42.708;23.360;2023-04-08T08:15:33;95608.69;;;11.06;53.68
36192;BME280;22233;42.708;23.360;2023-04-08T08:17:58;95606.75;;;10.75;54.71
36192;BME280;22233;42.708;23.360;2023-04-08T08:20:24;95610.63;;;11.06;54.18
36192;BME280;22233;42.708;23.360;2023-04-08T08:22:50;95621.19;;;11.07;54.76
36192;BME280;22233;42.708;23.360;2023-04-08T08:25:16;95608.91;;;11.18;53.65
36192;BME280;22233;42.708;23.360;2023-04-08T08:27:42;95607.91;;;11.06;54.88
36192;BME280;22233;42.708;23.360;2023-04-08T08:30:08;95587.84;;;10.93;54.54
36192;BME280;22233;42.708;23.360;2023-04-08T08:32:34;95609.59;;;10.93;54.27
36192;BME280;22233;42.708;23.360;2023-04-08T08:35:00;95615.66;;;11.21;53.86
36192;BME280;22233;42.708;23.360;2023-04-08T08:37:25;95600.50;;;11.29;53.34
36192;BME280;22233;42.708;23.360;2023-04-08T08:39:50;95611.78;;;11.13;53.15
36192;BME280;22233;42.708;23.360;2023-04-08T08:42:23;95604.94;;;11.25;53.81
36192;BME280;22233;42.708;23.360;2023-04-08T08:44:49;95604.16;;;11.24;53.08
36192;BME280;22233;42.708;23.360;2023-04-08T08:47:15;95612.97;;;11.30;54.20
36192;BME280;22233;42.708;23.360;2023-04-08T08:49:41;95601.75;;;11.23;53.41
36192;BME280;22233;42.708;23.360;2023-04-08T08:52:07;95617.56;;;11.20;53.83
36192;BME280;22233;42.708;23.360;2023-04-08T08:54:32;95619.28;;;11.39;53.48
36192;BME280;22233;42.708;23.360;2023-04-08T08:56:58;95620.38;;;11.07;55.40
36192;BME280;22233;42.708;23.360;2023-04-08T08:59:23;95594.00;;;11.07;55.01
36192;BME280;22233;42.708;23.360;2023-04-08T09:01:48;95616.16;;;11.23;53.31
36192;BME280;22233;42.708;23.360;2023-04-08T09:04:16;95614.53;;;10.91;54.57
36192;BME280;22233;42.708;23.360;2023-04-08T09:06:48;95611.22;;;11.25;53.71
36192;BME280;22233;42.708;23.360;2023-04-08T09:09:18;95620.16;;;11.26;53.58
36192;BME280;22233;42.708;23.360;2023-04-08T09:11:45;95624.22;;;11.37;53.37
36192;BME280;22233;42.708;23.360;2023-04-08T09:14:21;95612.31;;;11.24;53.62
36192;BME280;22233;42.708;23.360;2023-04-08T09:16:47;95619.22;;;11.30;53.74
36192;BME280;22233;42.708;23.360;2023-04-08T09:19:13;95603.06;;;11.03;53.49
36192;BME280;22233;42.708;23.360;2023-04-08T09:21:38;95612.63;;;11.23;54.38
36192;BME280;22233;42.708;23.360;2023-04-08T09:24:06;95604.31;;;11.19;54.20
36192;BME280;22233;42.708;23.360;2023-04-08T09:26:32;95603.94;;;11.43;54.50
36192;BME280;22233;42.708;23.360;2023-04-08T09:29:02;95601.91;;;11.57;53.90
36192;BME280;22233;42.708;23.360;2023-04-08T09:31:30;95601.69;;;11.85;52.96
36192;BME280;22233;42.708;23.360;2023-04-08T09:33:58;95604.44;;;11.94;52.00
36192;BME280;22233;42.708;23.360;2023-04-08T09:36:25;95596.06;;;11.82;53.54
36192;BME280;22233;42.708;23.360;2023-04-08T09:38:54;95591.88;;;11.75;53.02
36192;BME280;22233;42.708;23.360;2023-04-08T09:41:21;95605.25;;;12.03;53.79
36192;BME280;22233;42.708;23.360;2023-04-08T09:43:51;95596.94;;;12.17;53.73
36192;BME280;22233;42.708;23.360;2023-04-08T09:46:25;95582.53;;;12.25;52.17
36192;BME280;22233;42.708;23.360;2023-04-08T09:49:00;95590.25;;;12.58;50.91
36192;BME280;22233;42.708;23.360;2023-04-08T09:51:39;95591.38;;;12.48;51.79
36192;BME280;22233;42.708;23.360;2023-04-08T09:54:13;95586.72;;;12.57;50.65
36192;BME280;22233;42.708;23.360;2023-04-08T09:57:00;95589.44;;;12.57;51.42
36192;BME280;22233;42.708;23.360;2023-04-08T09:59:29;95581.88;;;12.98;50.13
36192;BME280;22233;42.708;23.360;2023-04-08T10:02:00;95581.25;;;12.84;50.19
36192;BME280;22233;42.708;23.360;2023-04-08T10:04:34;95583.16;;;13.01;49.63
36192;BME280;22233;42.708;23.360;2023-04-08T10:07:03;95570.16;;;13.06;48.77
36192;BME280;22233;42.708;23.360;2023-04-08T10:09:30;95566.75;;;13.09;48.65
36192;BME280;22233;42.708;23.360;2023-04-08T10:11:56;95565.75;;;13.40;48.43
36192;BME280;22233;42.708;23.360;2023-04-08T10:14:22;95563.66;;;13.28;48.68
36192;BME280;22233;42.708;23.360;2023-04-08T10:16:48;95555.63;;;13.41;47.75
36192;BME280;22233;42.708;23.360;2023-04-08T10:19:37;95562.66;;;13.50;48.45
36192;BME280;22233;42.708;23.360;2023-04-08T10:27:39;95551.38;;;13.61;48.83
36192;BME280;22233;42.708;23.360;2023-04-08T10:32:59;95546.00;;;13.73;47.50
36192;BME280;22233;42.708;23.360;2023-04-08T10:35:29;95539.03;;;13.54;47.48
36192;BME280;22233;42.708;23.360;2023-04-08T10:37:55;95539.31;;;13.62;47.12
36192;BME280;22233;42.708;23.360;2023-04-08T10:40:21;95541.94;;;13.49;47.95
36192;BME280;22233;42.708;23.360;2023-04-08T10:42:46;95541.91;;;13.11;49.58
36192;BME280;22233;42.708;23.360;2023-04-08T10:45:18;95547.66;;;13.65;48.87
36192;BME280;22233;42.708;23.360;2023-04-08T10:47:43;95534.41;;;13.46;48.58
36192;BME280;22233;42.708;23.360;2023-04-08T10:50:13;95541.00;;;13.45;48.39
36192;BME280;22233;42.708;23.360;2023-04-08T10:52:50;95525.84;;;13.56;47.41
36192;BME280;22233;42.708;23.360;2023-04-08T10:55:22;95533.13;;;13.44;48.15
36192;BME280;22233;42.708;23.360;2023-04-08T10:57:49;95527.63;;;13.82;47.61
36192;BME280;22233;42.708;23.360;2023-04-08T11:00:19;95518.53;;;13.48;48.44
36192;BME280;22233;42.708;23.360;2023-04-08T11:03:02;95521.13;;;13.95;47.63
36192;BME280;22233;42.708;23.360;2023-04-08T11:05:28;95517.19;;;14.26;47.34
36192;BME280;22233;42.708;23.360;2023-04-08T11:07:53;95510.59;;;14.27;46.11
36192;BME280;22233;42.708;23.360;2023-04-08T11:10:20;95509.50;;;14.41;46.20
36192;BME280;22233;42.708;23.360;2023-04-08T11:12:45;95508.13;;;14.34;45.79
36192;BME280;22233;42.708;23.360;2023-04-08T11:15:12;95506.91;;;14.44;44.88
36192;BME280;22233;42.708;23.360;2023-04-08T11:17:38;95510.00;;;14.22;43.90
36192;BME280;22233;42.708;23.360;2023-04-08T11:20:04;95517.53;;;14.04;44.75
36192;BME280;22233;42.708;23.360;2023-04-08T11:22:31;95498.41;;;13.53;45.55
36192;BME280;22233;42.708;23.360;2023-04-08T11:24:58;95498.34;;;13.32;47.46
36192;BME280;22233;42.708;23.360;2023-04-08T11:27:24;95503.16;;;13.35;48.63
36192;BME280;22233;42.708;23.360;2023-04-08T11:29:54;95496.69;;;13.48;47.18
36192;BME280;22233;42.708;23.360;2023-04-08T11:32:21;95492.06;;;14.12;46.07
36192;BME280;22233;42.708;23.360;2023-04-08T11:34:48;95484.75;;;14.04;45.33
36192;BME280;22233;42.708;23.360;2023-04-08T11:37:13;95451.56;;;14.14;44.23
36192;BME280;22233;42.708;23.360;2023-04-08T11:39:42;95487.53;;;14.58;44.10
36192;BME280;22233;42.708;23.360;2023-04-08T11:42:08;95480.41;;;14.45;43.42
36192;BME280;22233;42.708;23.360;2023-04-08T11:44:33;95474.03;;;14.74;43.23
36192;BME280;22233;42.708;23.360;2023-04-08T11:46:59;95464.00;;;14.78;42.85
36192;BME280;22233;42.708;23.360;2023-04-08T11:49:26;95473.56;;;14.72;43.63
36192;BME280;22233;42.708;23.360;2023-04-08T11:51:58;95478.03;;;14.89;43.17
36192;BME280;22233;42.708;23.360;2023-04-08T11:54:30;95468.53;;;15.20;42.44
36192;BME280;22233;42.708;23.360;2023-04-08T11:56:57;95467.19;;;14.80;42.69
36192;BME280;22233;42.708;23.360;2023-04-08T11:59:26;95458.03;;;15.22;42.14
36192;BME280;22233;42.708;23.360;2023-04-08T12:01:51;95455.28;;;15.46;41.06
36192;BME280;22233;42.708;23.360;2023-04-08T12:04:17;95446.38;;;15.62;39.94
36192;BME280;22233;42.708;23.360;2023-04-08T12:06:43;95451.16;;;15.77;38.48
36192;BME280;22233;42.708;23.360;2023-04-08T12:09:11;95439.34;;;15.24;39.72
36192;BME280;22233;42.708;23.360;2023-04-08T12:11:37;95441.38;;;15.51;39.64
36192;BME280;22233;42.708;23.360;2023-04-08T12:14:02;95452.44;;;15.80;39.65
36192;BME280;22233;42.708;23.360;2023-04-08T12:16:28;95439.31;;;15.73;40.15
36192;BME280;22233;42.708;23.360;2023-04-08T12:18:53;95445.59;;;15.12;41.26
36192;BME280;22233;42.708;23.360;2023-04-08T12:21:18;95451.19;;;15.03;41.01
36192;BME280;22233;42.708;23.360;2023-04-08T12:23:44;95445.72;;;15.03;41.21
36192;BME280;22233;42.708;23.360;2023-04-08T12:26:09;95455.97;;;14.61;41.27
36192;BME280;22233;42.708;23.360;2023-04-08T12:28:36;95441.81;;;14.80;41.40
36192;BME280;22233;42.708;23.360;2023-04-08T12:31:02;95436.81;;;15.06;40.92
36192;BME280;22233;42.708;23.360;2023-04-08T12:33:27;95448.78;;;15.14;41.16
36192;BME280;22233;42.708;23.360;2023-04-08T12:35:53;95428.16;;;15.29;41.11
36192;BME280;22233;42.708;23.360;2023-04-08T12:38:18;95427.69;;;15.14;41.49
36192;BME280;22233;42.708;23.360;2023-04-08T12:40:44;95433.53;;;14.55;40.85
36192;BME280;22233;42.708;23.360;2023-04-08T12:43:09;95426.16;;;14.34;40.80
36192;BME280;22233;42.708;23.360;2023-04-08T12:45:35;95423.84;;;14.24;41.50
36192;BME280;22233;42.708;23.360;2023-04-08T12:48:00;95433.00;;;14.07;41.71
36192;BME280;22233;42.708;23.360;2023-04-08T12:50:26;95428.00;;;14.09;41.94
36192;BME280;22233;42.708;23.360;2023-04-08T12:52:51;95430.06;;;13.91;42.34
36192;BME280;22233;42.708;23.360;2023-04-08T12:55:17;95436.19;;;13.88;44.01
36192;BME280;22233;42.708;23.360;2023-04-08T12:57:43;95438.72;;;13.51;46.16
36192;BME280;22233;42.708;23.360;2023-04-08T13:00:09;95443.63;;;13.58;46.72
36192;BME280;22233;42.708;23.360;2023-04-08T13:02:35;95433.72;;;13.53;46.35
36192;BME280;22233;42.708;23.360;2023-04-08T13:05:01;95444.81;;;13.18;47.40
36192;BME280;22233;42.708;23.360;2023-04-08T13:07:26;95440.78;;;12.77;47.97
36192;BME280;22233;42.708;23.360;2023-04-08T13:09:52;95454.19;;;13.00;46.75